Time;durP1;ratioP1;P1;durP2;ratioP2;P2;SDS_P1;SDS_P2;PMS_P1;PMS_P2;Temp;Humidity;BMP_temperature;BMP_pressure;BME280_temperature;BME280_humidity;BME280_pressure;Samples;Min_cycle;Max_cycle;Signal;HPM_P1;HPM_P2
2023/01/25 00:03:37;;;;;;;14.73;8.90;;;;;;;;;;20996736;28;20207;-76
2023/01/25 00:13:39;;;;;;;15.77;9.37;;;;;;;;;;20996332;28;20768;-75
2023/01/25 00:23:41;;;;;;;16.27;9.47;;;;;;;;;;20995256;28;20207;-76
2023/01/25 00:33:51;;;;;;;16.03;9.27;;;4.30;93.80;;;;;;20995254;28;20280;-76
2023/01/25 00:43:53;;;;;;;12.50;8.13;;;;;;;;;;20994635;28;20655;-77
2023/01/25 00:53:55;;;;;;;15.03;8.93;;;;;;;;;;20994734;28;20635;-76
2023/01/25 01:03:57;;;;;;;16.73;9.73;;;;;;;;;;20993762;28;20212;-76
2023/01/25 01:13:59;;;;;;;18.73;10.37;;;;;;;;;;20993387;28;20633;-76
2023/01/25 01:24:02;;;;;;;17.63;10.47;;;;;;;;;;21001950;28;20734;-76
2023/01/25 01:34:04;;;;;;;14.20;8.67;;;;;;;;;;21007587;28;20249;-76
2023/01/25 01:44:09;;;;;;;15.70;9.17;;;4.10;94.00;;;;;;21007323;28;20284;-76
2023/01/25 01:54:19;;;;;;;18.17;9.53;;;4.40;94.20;;;;;;21006999;28;20690;-76
2023/01/25 02:04:23;;;;;;;16.80;9.47;;;4.30;94.10;;;;;;21005960;28;20236;-76
2023/01/25 02:14:27;;;;;;;16.43;10.00;;;4.30;94.10;;;;;;21011770;28;20235;-74
2023/01/25 02:24:31;;;;;;;14.10;8.73;;;4.20;93.90;;;;;;21005631;28;20268;-75
2023/01/25 02:34:35;;;;;;;17.00;9.77;;;;;;;;;;21003216;28;20246;-76
2023/01/25 02:44:37;;;;;;;15.27;9.13;;;;;;;;;;21003167;28;20720;-77
2023/01/25 02:54:39;;;;;;;18.27;10.33;;;;;;;;;;21002352;28;20694;-77
2023/01/25 03:04:41;;;;;;;17.80;10.60;;;;;;;;;;21001328;28;20284;-76
2023/01/25 03:14:43;;;;;;;18.17;10.13;;;;;;;;;;21000374;28;20232;-77
2023/01/25 03:24:45;;;;;;;16.40;10.33;;;;;;;;;;20999814;28;20203;-77
2023/01/25 03:34:47;;;;;;;17.80;10.90;;;;;;;;;;20998351;28;20243;-77
2023/01/25 03:44:49;;;;;;;19.80;11.57;;;;;;;;;;20997377;28;20199;-78
2023/01/25 03:54:52;;;;;;;18.80;10.63;;;;;;;;;;20997930;28;20234;-76
2023/01/25 04:04:54;;;;;;;18.07;11.03;;;;;;;;;;20996621;28;20569;-76
2023/01/25 04:14:55;;;;;;;17.90;10.50;;;4.20;94.20;;;;;;20995942;28;20380;-76
2023/01/25 04:24:57;;;;;;;16.27;10.00;;;;;;;;;;20995895;28;20275;-77
2023/01/25 04:34:59;;;;;;;19.63;10.60;;;;;;;;;;20995355;28;20644;-78
2023/01/25 04:45:02;;;;;;;19.00;10.50;;;;;;;;;;20995046;28;20269;-78
2023/01/25 04:55:04;;;;;;;18.40;10.53;;;;;;;;;;20996838;28;20235;-78
2023/01/25 05:05:07;;;;;;;17.50;10.33;;;;;;;;;;21009933;28;20716;-78
2023/01/25 05:15:10;;;;;;;18.63;10.77;;;;;;;;;;21009696;28;20242;-77
2023/01/25 05:35:33;;;;;;;18.57;10.23;;;;;;;;;;21013034;28;20243;-77
2023/01/25 05:45:35;;;;;;;17.97;10.30;;;;;;;;;;21012478;28;20207;-76
2023/01/25 05:55:37;;;;;;;18.37;10.73;;;;;;;;;;21025609;28;20295;-75
2023/01/25 06:05:39;;;;;;;23.93;12.10;;;;;;;;;;21017045;28;20207;-76
2023/01/25 06:15:41;;;;;;;21.60;12.13;;;;;;;;;;21005000;28;20632;-76
2023/01/25 06:25:44;;;;;;;19.83;11.10;;;;;;;;;;21004103;28;20277;-75
2023/01/25 06:35:46;;;;;;;24.00;13.03;;;;;;;;;;21003465;28;20273;-73
2023/01/25 06:45:48;;;;;;;23.87;13.47;;;;;;;;;;21001653;28;20608;-70
2023/01/25 06:55:55;;;;;;;19.97;11.60;;;;;;;;;;21001507;28;20235;-71
2023/01/25 07:06:02;;;;;;;22.77;12.17;;;4.30;94.60;;;;;;21000109;28;20643;-71
2023/01/25 07:16:06;;;;;;;25.67;13.50;;;4.30;94.50;;;;;;20997281;28;20235;-73
2023/01/25 07:26:19;;;;;;;24.67;12.73;;;4.30;94.50;;;;;;20997928;28;20365;-75
2023/01/25 07:36:21;;;;;;;25.47;13.20;;;;;;;;;;20998038;28;20598;-69
2023/01/25 07:46:23;;;;;;;28.90;13.83;;;;;;;;;;20996874;28;20199;-75
2023/01/25 07:56:28;;;;;;;28.47;13.67;;;4.30;94.60;;;;;;20995433;28;20292;-70
2023/01/25 08:06:37;;;;;;;25.07;13.13;;;4.30;94.70;;;;;;20995490;28;20253;-70
2023/01/25 08:16:39;;;;;;;26.27;14.37;;;;;;;;;;20995531;28;20338;-70
2023/01/25 08:26:42;;;;;;;24.53;13.23;;;;;;;;;;20995033;28;20213;-73
2023/01/25 08:36:44;;;;;;;26.37;13.60;;;;;;;;;;20994319;28;20243;-71
2023/01/25 08:46:46;;;;;;;27.33;13.43;;;;;;;;;;20994102;28;20226;-76
2023/01/25 08:56:48;;;;;;;21.93;12.73;;;;;;;;;;20993524;28;20714;-71
2023/01/25 09:07:18;;;;;;;24.73;13.63;;;;;;;;;;21408330;27;20643;-75
2023/01/25 09:17:20;;;;;;;23.83;14.27;;;;;;;;;;21320265;27;20202;-76
2023/01/25 09:27:22;;;;;;;28.10;13.53;;;;;;;;;;21320014;27;20256;-74
2023/01/25 09:37:24;;;;;;;24.40;12.70;;;;;;;;;;21319786;27;20295;-75
2023/01/25 09:47:30;;;;;;;22.87;13.10;;;;;;;;;;21318767;27;20243;-69
2023/01/25 09:57:32;;;;;;;23.43;12.77;;;;;;;;;;21318904;27;20209;-69
2023/01/25 10:07:45;;;;;;;32.33;14.27;;;4.70;94.40;;;;;;21324391;27;20733;-69
2023/01/25 10:18:04;;;;;;;27.57;13.70;;;4.50;94.30;;;;;;21246486;27;20273;-73
2023/01/25 10:28:41;;;;;;;23.40;12.17;;;4.60;94.10;;;;;;21258293;27;20201;-73
2023/01/25 10:38:45;;;;;;;24.70;13.60;;;4.50;94.10;;;;;;21257691;27;20282;-73
2023/01/25 10:48:47;;;;;;;27.37;14.30;;;;;;;;;;21255525;27;20201;-74
2023/01/25 10:58:53;;;;;;;24.87;13.30;;;4.60;94.10;;;;;;21255894;27;20333;-73
2023/01/25 11:08:55;;;;;;;20.20;12.37;;;;;;;;;;21254954;27;20274;-73
2023/01/25 11:18:58;;;;;;;23.33;12.60;;;4.70;93.90;;;;;;21253632;27;20234;-73
2023/01/25 11:29:12;;;;;;;21.70;12.37;;;4.70;93.70;;;;;;21252079;27;20198;-73
2023/01/25 11:39:22;;;;;;;19.63;12.00;;;4.80;93.60;;;;;;21252509;27;20237;-76
2023/01/25 11:49:30;;;;;;;19.77;11.13;;;4.70;93.50;;;;;;21251909;27;20663;-75
2023/01/25 11:59:44;;;;;;;22.37;12.60;;;4.70;93.30;;;;;;21250511;27;20286;-74
2023/01/25 12:10:18;;;;;;;18.83;11.77;;;4.80;93.20;;;;;;21249966;27;20235;-76
2023/01/25 12:20:20;;;;;;;19.43;11.37;;;;;;;;;;21248472;27;20281;-72
2023/01/25 12:30:22;;;;;;;20.07;11.57;;;;;;;;;;21248512;27;20205;-73
2023/01/25 12:40:53;;;;;;;35.90;14.50;;;4.80;92.80;;;;;;21247278;27;20237;-76
2023/01/25 12:50:57;;;;;;;19.90;11.80;;;4.80;92.70;;;;;;21223283;27;20252;-78
2023/01/25 13:01:32;;;;;;;23.00;12.30;;;4.80;92.60;;;;;;21220585;28;20564;-75
2023/01/25 13:11:37;;;;;;;21.23;11.77;;;4.70;92.50;;;;;;21168963;28;20632;-75
2023/01/25 13:30:31;;;;;;;24.67;13.30;;;4.80;92.50;;;;;;21235414;27;20565;-74
2023/01/25 13:40:36;;;;;;;20.23;11.77;;;4.60;92.50;;;;;;21193873;28;20236;-75
2023/01/25 13:50:45;;;;;;;20.47;11.60;;;4.70;92.50;;;;;;21242823;28;20217;-72
2023/01/25 14:00:53;;;;;;;22.63;12.37;;;4.80;92.50;;;;;;21224542;27;20227;-74
2023/01/25 14:10:56;;;;;;;22.23;12.70;;;4.70;92.40;;;;;;21231979;28;20228;-76
2023/01/25 14:21:15;;;;;;;23.80;12.97;;;4.70;92.30;;;;;;21219952;27;20235;-71
2023/01/25 14:31:25;;;;;;;23.50;12.53;;;4.60;92.30;;;;;;21233066;28;20213;-75
2023/01/25 14:41:31;;;;;;;23.50;13.47;;;4.40;92.30;;;;;;21175330;28;20496;-73
2023/01/25 14:51:37;;;;;;;24.07;13.63;;;4.60;92.40;;;;;;21177097;28;20209;-72
2023/01/25 15:01:40;;;;;;;21.33;12.50;;;4.60;92.30;;;;;;21174234;28;20668;-71
2023/01/25 15:11:48;;;;;;;23.50;13.53;;;;;;;;;;21174839;28;20550;-73
2023/01/25 15:21:50;;;;;;;19.80;12.77;;;;;;;;;;21171290;28;20719;-79
2023/01/25 15:31:54;;;;;;;24.63;14.20;;;4.40;92.10;;;;;;21170180;28;20653;-71
2023/01/25 15:41:56;;;;;;;20.03;11.80;;;;;;;;;;21167535;28;20311;-68
2023/01/25 15:51:58;;;;;;;22.40;12.77;;;;;;;;;;21167136;28;20251;-75
2023/01/25 16:02:01;;;;;;;22.13;13.13;;;4.30;92.00;;;;;;21167037;28;20233;-72
2023/01/25 16:12:04;;;;;;;22.30;13.13;;;;;;;;;;21166827;28;20201;-72
2023/01/25 16:22:06;;;;;;;24.00;13.77;;;;;;;;;;21166178;28;20294;-71
2023/01/25 16:32:08;;;;;;;23.27;12.80;;;;;;;;;;21165174;28;20247;-76
2023/01/25 16:42:10;;;;;;;25.47;13.07;;;;;;;;;;21164868;28;20226;-75
2023/01/25 16:52:12;;;;;;;23.30;12.50;;;;;;;;;;21164550;28;20206;-75
2023/01/25 17:02:14;;;;;;;21.07;12.17;;;;;;;;;;21163502;28;20229;-72
2023/01/25 17:12:16;;;;;;;26.20;12.53;;;;;;;;;;21145428;28;20230;-72
2023/01/25 17:22:18;;;;;;;29.47;15.50;;;;;;;;;;21164615;28;20280;-72
2023/01/25 17:32:20;;;;;;;23.57;13.50;;;4.10;91.90;;;;;;21164656;28;20206;-75
2023/01/25 17:42:22;;;;;;;26.97;13.73;;;;;;;;;;21159709;28;20633;-71
2023/01/25 17:52:24;;;;;;;23.83;13.73;;;;;;;;;;21161979;28;20255;-74
2023/01/25 18:02:26;;;;;;;22.47;13.30;;;;;;;;;;21159613;28;20634;-71
2023/01/25 18:12:28;;;;;;;23.07;12.97;;;;;;;;;;21168525;28;20202;-73
2023/01/25 18:22:33;;;;;;;27.53;15.10;;;3.90;91.70;;;;;;21173923;28;20250;-70
2023/01/25 18:32:35;;;;;;;24.23;13.20;;;;;;;;;;21172939;28;20598;-74
2023/01/25 18:42:37;;;;;;;32.27;16.03;;;;;;;;;;21172256;28;20286;-73
2023/01/25 18:52:39;;;;;;;22.60;13.80;;;3.70;91.60;;;;;;21172912;28;20660;-76
2023/01/25 19:02:41;;;;;;;24.20;13.67;;;;;;;;;;21172507;28;20287;-73
2023/01/25 19:12:43;;;;;;;26.37;14.43;;;;;;;;;;21172041;28;20202;-71
2023/01/25 19:22:46;;;;;;;25.00;14.33;;;;;;;;;;21169421;28;20295;-72
2023/01/25 19:32:48;;;;;;;27.57;15.47;;;;;;;;;;21167443;28;20206;-72
2023/01/25 19:42:50;;;;;;;27.40;15.70;;;;;;;;;;21167537;28;20286;-74
2023/01/25 19:52:54;;;;;;;29.07;15.30;;;3.90;91.90;;;;;;21166903;28;20212;-72
2023/01/25 20:02:56;;;;;;;27.07;14.67;;;3.90;91.80;;;;;;21166471;28;20307;-73
2023/01/25 20:13:15;;;;;;;25.57;15.63;;;;;;;;;;21165361;28;20210;-73
2023/01/25 20:23:18;;;;;;;27.03;15.20;;;;;;;;;;21164252;28;20237;-73
2023/01/25 20:33:20;;;;;;;28.93;15.73;;;;;;;;;;21163561;28;20259;-72
2023/01/25 20:43:23;;;;;;;28.93;16.10;;;;;;;;;;21163606;28;20235;-72
2023/01/25 20:53:25;;;;;;;25.50;15.23;;;;;;;;;;21169930;28;20209;-72
2023/01/25 21:03:28;;;;;;;27.73;14.53;;;;;;;;;;21163160;28;20568;-73
2023/01/25 21:13:31;;;;;;;29.10;16.37;;;;;;;;;;21161209;28;20198;-73
2023/01/25 21:23:34;;;;;;;29.03;15.53;;;3.50;92.20;;;;;;21160401;28;20678;-72
2023/01/25 21:33:36;;;;;;;30.30;16.33;;;;;;;;;;21160667;28;20507;-72
2023/01/25 21:53:59;;;;;;;30.20;16.33;;;;;;;;;;21176312;28;20198;-72
2023/01/25 22:04:01;;;;;;;27.17;14.93;;;;;;;;;;21175618;28;20232;-72
2023/01/25 22:14:04;;;;;;;29.23;15.63;;;;;;;;;;21174749;28;20665;-72
2023/01/25 22:24:06;;;;;;;27.60;15.23;;;;;;;;;;21173590;28;20728;-72
2023/01/25 22:34:09;;;;;;;29.27;15.33;;;;;;;;;;21173792;28;20244;-72
2023/01/25 22:44:10;;;;;;;27.53;15.83;;;2.40;91.80;;;;;;21172585;28;20306;-72
2023/01/25 22:54:12;;;;;;;32.27;16.07;;;;;;;;;;21171472;28;20235;-72
2023/01/25 23:04:14;;;;;;;28.30;15.93;;;;;;;;;;21171577;28;20234;-72
2023/01/25 23:24:37;;;;;;;29.80;15.47;;;;;;;;;;21169138;28;20234;-72
2023/01/25 23:34:40;;;;;;;31.30;16.67;;;;;;;;;;21169245;28;20202;-72
2023/01/25 23:44:42;;;;;;;30.53;16.90;;;;;;;;;;21167798;28;20746;-72
2023/01/25 23:54:44;;;;;;;30.17;15.47;;;;;;;;;;21166807;28;20214;-72
